• Join FlightAware (Why Join?)
  • Login
  • US Flag 
03:15AM EDT


 

Airport Tracker/Info


-or-


 

Live Flight TrackerFlight Track Log ✈ EJA922 ✈ 21-Nov-2013 ✈ KLAS - KBHM

Flight Track Log - Related Links

Times and Time Zones

All times are in EST time to prevent confusion due to time zone crossing. See the EJA922 flight status page for this flight to view local times or setup timezone preferences in your user account.

Time Position Orientation Groundspeed Altitude Reporting Facility
EST Latitude Longitude Course Direction KTS MPH feet Rate Location/Type
03:15PM 36.0619 -115.1728 206° Southwest 180 207 3,300  Level Los Angeles Center
03:15PM 36.0333 -115.1903 206° Southwest 228 262 5,200 2,580 Climbing Los Angeles Center
03:16PM 35.9942 -115.2483 230° Southwest 230 265 7,000 1,440 Climbing Los Angeles Center
03:17PM 35.9864 -115.2667 242° Southwest 230 265 7,000 60 Level Los Angeles Center
03:17PM 35.9406 -115.2897 202° Southwest 257 296 7,100 540 Climbing Los Angeles Center
03:18PM 35.9214 -115.2819 162° South 261 300 7,600 3,720 Climbing Los Angeles Center
03:18PM 35.8722 -115.2539 155° Southeast 273 314 10,900 3,960 Climbing Los Angeles Center
03:19PM 35.8567 -115.2231 122° Southeast 288 331 11,700 2,700 Climbing Los Angeles Center
03:19PM 35.8394 -115.1531 107° East 342 394 13,600 3,000 Climbing Los Angeles Center
03:20PM 35.8311 -115.1108 104° East 343 395 14,800 2,820 Climbing Los Angeles Center
03:21PM 35.8311 -114.9783 90° East 369 425 17,600 2,400 Climbing Los Angeles Center
03:22PM 35.8439 -114.8403 83° East 379 436 19,900 2,100 Climbing Los Angeles Center
03:23PM 35.8608 -114.7039 81° East 390 449 22,000 1,860 Climbing Los Angeles Center
03:24PM 35.8731 -114.5536 84° East 413 475 23,800 1,680 Climbing Los Angeles Center
03:25PM 35.8858 -114.3950 84° East 436 502 25,500 1,680 Climbing Los Angeles Center
03:26PM 35.8994 -114.2314 84° East 456 525 27,300 1,260 Climbing Los Angeles Center
03:27PM 35.9097 -114.0508 86° East 488 562 28,200 840 Climbing Los Angeles Center
03:28PM 35.9178 -113.8772 87° East 509 586 29,100 1,200 Climbing Los Angeles Center
03:29PM 35.8875 -113.6739 100° East 506 582 30,800 1,320 Climbing Los Angeles Center
03:30PM 35.8592 -113.5008 101° East 510 587 31,900 1,620 Climbing Los Angeles Center
03:31PM 35.8311 -113.3231 101° East 518 596 34,200 1,920 Climbing Los Angeles Center
03:32PM 35.8022 -113.1472 101° East 522 601 35,900 1,800 Climbing Los Angeles Center
03:33PM 35.7739 -112.9692 101° East 525 604 38,000 1,740 Climbing Los Angeles Center
03:34PM 35.7447 -112.7947 102° East 521 600 39,600 1,200 Climbing Los Angeles Center
03:35PM 35.7094 -112.5833 102° East 521 600 40,500 660 Climbing Los Angeles Center
03:36PM 35.6797 -112.4036 101° East 529 609 41,000 240 Climbing Los Angeles Center
03:37PM 35.6469 -112.2169 102° East 551 634 41,000  Level Los Angeles Center
03:38PM 35.6200 -112.0656 102° East 557 641 41,000  Level Albuquerque Center
03:39PM 35.5872 -111.8342 100° East 570 656 41,000  Level Albuquerque Center
03:40PM 35.5833 -111.6369 91° East 579 666 41,000  Level Albuquerque Center
03:41PM 35.5775 -111.4383 92° East 582 670 41,000  Level Albuquerque Center
03:42PM 35.5711 -111.2236 92° East 584 672 41,000  Level Albuquerque Center
03:43PM 35.5653 -111.0342 92° East 582 670 41,000  Level Albuquerque Center
03:44PM 35.5572 -110.8106 92° East 585 673 41,000  Level Albuquerque Center
03:45PM 35.5514 -110.6211 92° East 583 671 41,000  Level Albuquerque Center
03:47PM 35.5425 -110.3972 93° East 586 674 41,000  Level Albuquerque Center
03:48PM 35.5358 -110.2072 92° East 585 673 41,000  Level Albuquerque Center
03:49PM 35.5269 -109.9847 93° East 586 674 41,000  Level Albuquerque Center
03:50PM 35.5192 -109.7942 93° East 586 674 41,000  Level Albuquerque Center
03:51PM 35.5097 -109.5733 93° East 583 671 41,000  Level Albuquerque Center
03:52PM 35.5008 -109.3806 93° East 589 678 41,000  Level Albuquerque Center
03:53PM 35.4906 -109.1594 93° East 587 676 41,000  Level Albuquerque Center
03:54PM 35.4806 -108.9711 94° East 584 672 41,000  Level Albuquerque Center
03:55PM 35.4831 -108.7522 89° East 581 669 41,000  Level Albuquerque Center
03:56PM 35.4958 -108.5628 85° East 585 673 41,000  Level Albuquerque Center
03:57PM 35.5094 -108.3394 86° East 589 678 41,000  Level Albuquerque Center
03:58PM 35.5203 -108.1489 86° East 589 678 41,000  Level Albuquerque Center
03:59PM 35.5328 -107.9275 86° East 585 673 41,000  Level Albuquerque Center
04:00PM 35.5431 -107.7375 86° East 585 673 41,000  Level Albuquerque Center
04:01PM 35.5547 -107.5156 86° East 585 673 41,000  Level Albuquerque Center
04:02PM 35.5653 -107.3236 86° East 586 674 41,000  Level Albuquerque Center
04:03PM 35.5750 -107.1103 87° East 590 679 41,000  Level Albuquerque Center
04:04PM 35.5858 -106.8933 86° East 592 681 41,000  Level Albuquerque Center
04:05PM 35.5953 -106.6939 87° East 586 674 41,000  Level Albuquerque Center
04:06PM 35.6050 -106.4756 87° East 592 681 41,000  Level Albuquerque Center
04:07PM 35.6131 -106.2753 87° East 590 679 41,000  Level Albuquerque Center
04:08PM 35.6239 -106.0942 86° East 583 671 41,000  Level Albuquerque Center
04:09PM 35.6331 -105.8933 87° East 587 676 41,000  Level Albuquerque Center
04:10PM 35.6383 -105.6928 88° East 586 674 41,000  Level Albuquerque Center
04:11PM 35.6475 -105.4750 87° East 587 676 41,000  Level Albuquerque Center
04:12PM 35.6547 -105.2397 88° East 586 674 41,000  Level Albuquerque Center
04:13PM 35.6497 -105.0392 92° East 582 670 41,000  Level Albuquerque Center
04:14PM 35.6264 -104.8417 98° East 577 664 41,000  Level Albuquerque Center
04:15PM 35.6042 -104.6458 98° East 574 661 41,000  Level Albuquerque Center
04:17PM 35.5811 -104.4500 98° East 572 658 41,000  Level Albuquerque Center
04:18PM 35.5594 -104.2533 98° East 572 658 41,000  Level Albuquerque Center
04:19PM 35.5369 -104.0572 98° East 569 655 41,000  Level Albuquerque Center
04:20PM 35.5139 -103.8600 98° East 572 658 41,000  Level Albuquerque Center
04:21PM 35.4894 -103.6639 99° East 573 659 41,000  Level Albuquerque Center
04:22PM 35.4661 -103.4689 98° East 572 658 41,000  Level Albuquerque Center
04:23PM 35.4419 -103.2747 99° East 571 657 41,000  Level Albuquerque Center
04:24PM 35.4136 -103.0475 99° East 573 659 41,000  Level Albuquerque Center
04:25PM 35.3886 -102.8506 99° East 577 664 41,000  Level Albuquerque Center
04:26PM 35.3625 -102.6547 99° East 577 664 41,000  Level Albuquerque Center
04:27PM 35.3369 -102.4594 99° East 575 662 41,000  Level Albuquerque Center
04:28PM 35.3228 -102.2636 95° East 578 665 41,000  Level Albuquerque Center
04:29PM 35.3156 -102.0686 93° East 575 662 41,000  Level Albuquerque Center
04:30PM 35.3072 -101.8683 93° East 576 663 41,000  Level Albuquerque Center
04:31PM 35.2967 -101.6450 93° East 574 661 41,000  Level Albuquerque Center
04:32PM 35.2869 -101.4497 93° East 573 659 41,000  Level Albuquerque Center
04:33PM 35.2781 -101.2711 93° East 577 664 41,000  Level Albuquerque Center
04:34PM 35.2650 -101.0378 94° East 575 662 41,000  Level Albuquerque Center
04:35PM 35.2547 -100.8442 94° East 573 659 41,000  Level Albuquerque Center
04:36PM 35.2453 -100.6678 94° East 574 661 41,000  Level Albuquerque Center
04:37PM 35.2339 -100.4722 94° East 576 663 41,000  Level Albuquerque Center
04:38PM 35.2200 -100.2383 94° East 575 662 41,000  Level Albuquerque Center
04:39PM 35.2078 -100.0439 94° East 575 662 41,000  Level Albuquerque Center
04:40PM 35.1961 -99.8500 94° East 574 661 41,000  Level Albuquerque Center
04:41PM 35.1839 -99.6556 94° East 574 661 41,000  Level Albuquerque Center
04:42PM 35.1711 -99.4617 95° East 574 661 41,000  Level Albuquerque Center
04:43PM 35.1578 -99.2681 95° East 575 662 41,000  Level Fort Worth Center
04:44PM 35.1444 -99.0733 95° East 576 663 41,000  Level Fort Worth Center
04:45PM 35.1308 -98.8811 95° East 571 657 41,000  Level Fort Worth Center
04:46PM 35.1172 -98.6883 95° East 570 656 41,000  Level Fort Worth Center
04:47PM 35.1006 -98.4717 95° East 571 657 41,000  Level Fort Worth Center
04:48PM 35.0858 -98.2786 95° East 572 658 41,000  Level Fort Worth Center
04:49PM 35.0714 -98.0858 95° East 577 664 41,000  Level Fort Worth Center
04:50PM 35.0575 -97.8925 95° East 575 662 41,000  Level Fort Worth Center
04:51PM 35.0408 -97.7011 96° East 576 663 41,000  Level Fort Worth Center
04:52PM 35.0217 -97.4722 96° East 575 662 41,000  Level Fort Worth Center
04:54PM 34.9950 -97.2839 100° East 571 657 41,000  Level Fort Worth Center
04:55PM 34.9661 -97.0969 101° East 569 655 41,000  Level Fort Worth Center
04:56PM 34.9397 -96.9089 100° East 569 655 41,000  Level Fort Worth Center
04:57PM 34.9086 -96.6831 99° East 567 652 41,000  Level Fort Worth Center
04:59PM 34.8606 -96.3050 99° East 569 655 41,000  Level Fort Worth Center
05:00PM 34.8575 -96.1144 91° East 567 652 41,000  Level Fort Worth Center
05:01PM 34.8697 -95.9194 86° East 572 658 41,000  Level Fort Worth Center
05:02PM 34.8981 -95.7253 80° East 578 665 41,000  Level Fort Worth Center
05:03PM 34.9400 -95.4922 78° East 587 676 41,000  Level Fort Worth Center
05:04PM 34.9453 -95.2986 88° East 580 667 41,000  Level Fort Worth Center
05:05PM 34.9233 -95.1094 98° East 570 656 41,000  Level Fort Worth Center
05:06PM 34.9003 -94.9200 98° East 567 652 41,000  Level Fort Worth Center
05:07PM 34.8767 -94.7292 99° East 569 655 41,000  Level Fort Worth Center
05:08PM 34.8528 -94.5144 98° East 573 659 41,000  Level Fort Worth Center
05:09PM 34.8294 -94.3244 98° East 569 655 41,000  Level Fort Worth Center
05:10PM 34.8061 -94.1336 98° East 570 656 41,000  Level Fort Worth Center
05:11PM 34.7808 -93.9425 99° East 572 658 41,000  Level Fort Worth Center
05:12PM 34.7333 -93.7189 104° East 567 652 41,000  Level Fort Worth Center
05:13PM 34.6933 -93.5353 105° East 563 648 41,000  Level Fort Worth Center
05:14PM 34.6531 -93.3522 105° East 561 646 41,000  Level Fort Worth Center
05:15PM 34.6097 -93.1506 105° East 564 649 41,000  Level Fort Worth Center
05:16PM 34.5681 -92.9669 105° East 568 654 41,000  Level Fort Worth Center
05:17PM 34.5286 -92.7847 105° East 566 651 41,000  Level Fort Worth Center
05:18PM 34.4869 -92.6033 106° East 564 649 41,000  Level Fort Worth Center
05:20PM 34.4361 -92.3844 106° East 567 652 41,000  Level Memphis Center
05:21PM 34.3958 -92.2067 105° East 557 641 41,100 780 Climbing Memphis Center
05:22PM 34.3492 -91.9969 105° East 545 627 42,700 900 Climbing Memphis Center
05:23PM 34.3086 -91.8231 106° East 540 621 43,000 120 Climbing Memphis Center
05:24PM 34.2644 -91.6392 106° East 545 627 43,000  Level Memphis Center
05:25PM 34.2236 -91.4622 106° East 543 625 43,000  Level Memphis Center
05:26PM 34.1803 -91.2853 106° East 542 624 43,000  Level Memphis Center
05:27PM 34.1394 -91.1089 106° East 545 627 43,000  Level Memphis Center
05:28PM 34.0964 -90.9319 106° East 547 629 43,000  Level Memphis Center
05:29PM 34.0464 -90.7244 106° East 549 632 43,000  Level Memphis Center
05:30PM 34.0033 -90.5472 106° East 548 631 43,000  Level Memphis Center
05:31PM 33.9600 -90.3703 106° East 548 631 43,000  Level Memphis Center
05:32PM 33.9156 -90.1956 107° East 547 629 43,000  Level Memphis Center
05:33PM 33.8722 -90.0186 106° East 547 629 43,000  Level Memphis Center
05:34PM 33.8286 -89.8422 107° East 547 629 43,000  Level Memphis Center
05:35PM 33.7800 -89.6539 107° East 550 633 43,000 -420 Level Memphis Center
05:36PM 33.6947 -89.5117 126° Southeast 533 613 42,200 -1,380 Descending Memphis Center
05:37PM 33.5661 -89.4306 152° Southeast 523 602 40,200 -2,160 Descending Memphis Center
05:38PM 33.4286 -89.3186 146° Southeast 512 589 37,800 -2,160 Descending Memphis Center
05:39PM 33.3867 -89.1572 107° East 523 602 35,800 -1,620 Descending Memphis Center
05:40PM 33.3925 -88.9794 88° East 535 616 34,500 -1,620 Descending Memphis Center
05:41PM 33.4278 -88.8047 76° East 541 623 32,500 -1,980 Descending Memphis Center
05:42PM 33.4639 -88.6233 77° East 556 640 30,500 -2,160 Descending Memphis Center
05:43PM 33.4797 -88.5328 78° East 560 644 29,500 -2,340 Descending Memphis Center
05:43PM 33.5019 -88.4061 78° East 558 642 28,100 -2,100 Descending Memphis Center
05:44PM 33.5069 -88.3211 86° East 560 644 27,200 -1,980 Descending Memphis Center
05:44PM 33.5211 -88.2258 80° East 551 634 26,100 -1,980 Descending Memphis Center
05:45PM 33.5297 -88.1489 82° East 537 618 25,200 -1,800 Descending Memphis Center
05:45PM 33.5389 -88.0697 82° East 537 618 24,300 -2,040 Descending Memphis Center
05:46PM 33.5611 -87.8728 82° East 510 587 21,900 -2,160 Descending Memphis Center
05:47PM 33.5797 -87.7119 82° East 497 572 19,900 -1,980 Descending Memphis Center
05:49PM 33.5981 -87.5578 82° East 480 552 17,900 -1,860 Descending Memphis Center
05:50PM 33.6153 -87.4081 82° East 465 535 16,100 -1,860 Descending Memphis Center
05:51PM 33.6319 -87.2589 82° East 457 526 14,100 -1,860 Descending Memphis Center
05:52PM 33.6528 -87.0608 83° East 429 494 11,800 -1,800 Descending Atlanta Center
05:52PM 33.6531 -87.0508 88° East 378 435 11,600 -1,320 Descending Atlanta Center
05:53PM 33.6658 -86.9492 81° East 382 440 10,500 -1,620 Descending Atlanta Center
05:53PM 33.6619 -86.9389 114° Southeast 303 349 10,000 -1,920 Descending Atlanta Center
05:54PM 33.6322 -86.8731 118° Southeast 266 306 8,600 -1,740 Descending Atlanta Center
05:54PM 33.6175 -86.8850 214° Southwest 262 302 8,300 -1,440 Descending Atlanta Center
05:55PM 33.5767 -86.9286 222° Southwest 136 157 7,200 -1,320 Descending Atlanta Center
05:55PM 33.5681 -86.9458 239° Southwest 245 282 7,000 -420 Descending Atlanta Center
05:56PM 33.5397 -86.9947 235° Southwest 167 192 6,800 -240 Descending Atlanta Center
05:56PM 33.5353 -87.0019 234° Southwest 222 255 6,800 -1,020 Level Atlanta Center
05:57PM 33.5069 -87.0533 237° Southwest 203 234 5,800 -1,140 Descending Atlanta Center
05:57PM 33.5025 -87.0606 234° Southwest 211 243 5,700 -660 Descending Atlanta Center
05:58PM 33.4567 -87.0639 183° South 184 212 5,100 -780 Descending Atlanta Center
05:59PM 33.4431 -87.0161 109° East 191 220 4,300 -900 Descending Atlanta Center
06:00PM 33.4531 -86.9444 80° East 203 234 3,300 -840 Descending Atlanta Center
06:01PM 33.4878 -86.8908 52° Northeast 200 230 2,600 -600 Descending Atlanta Center
06:02PM 33.5119 -86.8442 58° Northeast 154 177 2,100 -600 Descending Atlanta Center
06:03PM 33.5336 -86.8075 55° Northeast 126 145 1,400 -720 Descending Atlanta Center